createdAt,value
2024-03-07T00:00:31.284Z,8.40
2024-03-07T00:03:00.385Z,8.20
2024-03-07T00:05:27.657Z,8.20
2024-03-07T00:07:57.471Z,8.30
2024-03-07T00:10:24.220Z,8.50
2024-03-07T00:12:50.995Z,8.50
2024-03-07T00:15:18.647Z,8.40
2024-03-07T00:17:45.496Z,8.40
2024-03-07T00:20:16.392Z,8.20
2024-03-07T00:22:44.088Z,8.20
2024-03-07T00:25:12.201Z,8.30
2024-03-07T00:27:41.938Z,8.30
2024-03-07T00:30:09.831Z,8.30
2024-03-07T00:32:37.753Z,8.20
2024-03-07T00:35:04.847Z,8.30
2024-03-07T00:37:31.941Z,8.30
2024-03-07T00:39:59.066Z,8.20
2024-03-07T00:42:25.794Z,8.10
2024-03-07T00:44:52.596Z,8.10
2024-03-07T00:47:19.587Z,7.90
2024-03-07T00:49:47.473Z,7.90
2024-03-07T00:52:15.008Z,7.80
2024-03-07T00:54:41.976Z,7.80
2024-03-07T00:57:09.120Z,7.70
2024-03-07T00:59:36.227Z,7.70
2024-03-07T01:02:03.393Z,7.70
2024-03-07T01:04:32.339Z,7.70
2024-03-07T01:07:02.505Z,7.70
2024-03-07T01:09:29.795Z,7.60
2024-03-07T01:11:56.963Z,7.60
2024-03-07T01:14:24.478Z,7.70
2024-03-07T01:16:51.476Z,7.70
2024-03-07T01:19:18.671Z,7.80
2024-03-07T01:21:45.439Z,7.80
2024-03-07T01:24:12.080Z,7.80
2024-03-07T01:26:38.805Z,7.70
2024-03-07T01:29:07.889Z,7.80
2024-03-07T01:31:35.015Z,7.70
2024-03-07T01:34:01.762Z,7.60
2024-03-07T01:36:28.444Z,7.60
2024-03-07T01:38:57.943Z,7.50
2024-03-07T01:41:25.316Z,7.60
2024-03-07T01:43:51.962Z,7.60
2024-03-07T01:46:18.678Z,7.70
2024-03-07T01:48:45.577Z,7.70
2024-03-07T01:51:12.438Z,7.60
2024-03-07T01:53:39.565Z,7.60
2024-03-07T01:56:06.797Z,7.50
2024-03-07T01:58:36.386Z,7.50
2024-03-07T02:01:03.211Z,7.50
2024-03-07T02:03:29.949Z,7.30
2024-03-07T02:05:57.588Z,7.20
2024-03-07T02:08:24.378Z,7.20
2024-03-07T02:10:51.260Z,7.30
2024-03-07T02:13:18.622Z,7.30
2024-03-07T02:15:45.341Z,7.40
2024-03-07T02:18:12.337Z,7.30
2024-03-07T02:20:43.244Z,7.30
2024-03-07T02:23:09.908Z,7.20
2024-03-07T02:25:38.500Z,7.10
2024-03-07T02:28:06.011Z,7.10
2024-03-07T02:30:33.245Z,7.10
2024-03-07T02:33:07.407Z,7.10
2024-03-07T02:35:39.095Z,7.10
2024-03-07T02:38:06.501Z,7.10
2024-03-07T02:40:33.469Z,7.10
2024-03-07T02:43:00.232Z,7.00
2024-03-07T02:45:26.903Z,7.00
2024-03-07T02:47:54.817Z,6.90
2024-03-07T02:50:23.016Z,6.90
2024-03-07T02:52:50.833Z,6.90
2024-03-07T02:55:18.519Z,7.00
2024-03-07T02:57:45.436Z,7.00
2024-03-07T03:00:27.599Z,7.00
2024-03-07T03:02:54.660Z,7.00
2024-03-07T03:05:21.432Z,6.70
2024-03-07T03:07:54.113Z,6.70
2024-03-07T03:10:27.672Z,6.60
2024-03-07T03:12:55.193Z,6.70
2024-03-07T03:15:22.138Z,6.40
2024-03-07T03:17:49.564Z,6.50
2024-03-07T03:20:25.679Z,6.60
2024-03-07T03:23:07.500Z,6.70
2024-03-07T03:25:42.286Z,6.60
2024-03-07T03:28:12.439Z,6.60
2024-03-07T03:30:40.160Z,6.70
2024-03-07T03:33:07.814Z,6.70
2024-03-07T03:35:35.378Z,6.60
2024-03-07T03:38:02.323Z,6.60
2024-03-07T03:40:29.054Z,6.70
2024-03-07T03:42:58.219Z,6.70
2024-03-07T03:45:26.449Z,6.70
2024-03-07T03:47:57.458Z,6.60
2024-03-07T03:50:24.241Z,6.60
2024-03-07T03:52:51.523Z,6.60
2024-03-07T03:55:18.299Z,6.60
2024-03-07T03:57:47.984Z,6.50
2024-03-07T04:00:15.014Z,6.60
2024-03-07T04:02:48.987Z,6.60
2024-03-07T04:05:20.041Z,6.60
2024-03-07T04:07:47.209Z,6.60
2024-03-07T04:10:15.834Z,6.70
2024-03-07T04:12:42.839Z,6.50
2024-03-07T04:15:18.314Z,6.40
2024-03-07T04:17:49.670Z,6.40
2024-03-07T04:20:18.531Z,6.30
2024-03-07T04:22:46.135Z,6.30
2024-03-07T04:25:13.298Z,6.40
2024-03-07T04:27:40.956Z,6.30
2024-03-07T04:30:10.558Z,6.30
2024-03-07T04:32:38.738Z,6.30
2024-03-07T04:35:08.669Z,6.30
2024-03-07T04:37:37.391Z,6.30
2024-03-07T04:40:18.119Z,6.20
2024-03-07T04:42:50.667Z,6.20
2024-03-07T04:45:18.572Z,6.30
2024-03-07T04:47:46.376Z,6.20
2024-03-07T04:50:18.242Z,6.30
2024-03-07T04:52:48.778Z,6.20
2024-03-07T04:55:16.314Z,6.20
2024-03-07T04:57:45.551Z,6.20
2024-03-07T05:00:17.832Z,6.30
2024-03-07T05:02:48.292Z,6.20
2024-03-07T05:05:15.648Z,6.20
2024-03-07T05:07:42.616Z,6.20
2024-03-07T05:10:09.875Z,6.30
2024-03-07T05:12:38.005Z,6.20
2024-03-07T05:15:06.493Z,6.40
2024-03-07T05:17:36.098Z,6.40
2024-03-07T05:20:06.616Z,6.30
2024-03-07T05:22:33.265Z,6.20
2024-03-07T05:25:00.233Z,6.10
2024-03-07T05:27:28.934Z,6.10
2024-03-07T05:29:56.544Z,6.10
2024-03-07T05:32:27.764Z,6.10
2024-03-07T05:34:55.135Z,6.00
2024-03-07T05:37:25.232Z,6.00
2024-03-07T05:39:53.137Z,6.00
2024-03-07T05:42:20.647Z,5.90
2024-03-07T05:44:47.783Z,6.10
2024-03-07T05:47:15.377Z,6.10
2024-03-07T05:49:42.041Z,6.10
2024-03-07T05:52:09.200Z,6.00
2024-03-07T05:54:36.666Z,6.00
2024-03-07T05:57:04.066Z,5.90
2024-03-07T05:59:32.051Z,5.90
2024-03-07T06:01:58.883Z,5.90
2024-03-07T06:04:25.707Z,5.70
2024-03-07T06:06:52.426Z,5.60
2024-03-07T06:09:25.037Z,5.40
2024-03-07T06:11:52.166Z,5.00
2024-03-07T06:14:19.216Z,5.30
2024-03-07T06:16:46.163Z,5.30
2024-03-07T06:19:13.609Z,5.30
2024-03-07T06:21:42.364Z,5.50
2024-03-07T06:24:11.548Z,5.60
2024-03-07T06:26:42.220Z,5.60
2024-03-07T06:29:09.445Z,5.50
2024-03-07T06:31:36.156Z,5.50
2024-03-07T06:34:03.138Z,5.20
2024-03-07T06:36:29.948Z,5.00
2024-03-07T06:38:56.696Z,4.90
2024-03-07T06:41:23.668Z,4.70
2024-03-07T06:43:53.730Z,4.80
2024-03-07T06:46:21.166Z,5.00
2024-03-07T06:48:48.259Z,5.20
2024-03-07T06:51:19.433Z,5.10
2024-03-07T06:53:49.510Z,5.00
2024-03-07T06:56:17.674Z,5.00
2024-03-07T06:58:46.730Z,5.00
2024-03-07T07:01:16.391Z,5.00
2024-03-07T07:03:47.140Z,5.10
2024-03-07T07:06:13.783Z,5.00
2024-03-07T07:08:40.813Z,5.00
2024-03-07T07:11:07.628Z,5.10
2024-03-07T07:13:37.292Z,5.30
2024-03-07T07:16:04.197Z,5.20
2024-03-07T07:18:31.754Z,5.30
2024-03-07T07:20:59.537Z,5.30
2024-03-07T07:23:27.710Z,5.30
2024-03-07T07:25:54.385Z,5.30
2024-03-07T07:28:21.095Z,5.40
2024-03-07T07:30:47.819Z,5.50
2024-03-07T07:33:15.375Z,5.50
2024-03-07T07:35:42.670Z,5.60
2024-03-07T07:38:12.013Z,5.80
2024-03-07T07:40:39.808Z,5.80
2024-03-07T07:43:09.357Z,6.00
2024-03-07T07:45:37.267Z,6.10
2024-03-07T07:48:04.640Z,6.20
2024-03-07T07:50:34.022Z,6.30
2024-03-07T07:53:00.736Z,6.40
2024-03-07T07:55:29.125Z,6.40
2024-03-07T07:58:00.051Z,6.60
2024-03-07T08:00:30.234Z,6.60
2024-03-07T08:03:04.836Z,6.60
2024-03-07T08:05:34.553Z,6.90
2024-03-07T08:08:07.762Z,7.00
2024-03-07T08:10:36.447Z,7.10
2024-03-07T08:13:04.632Z,7.10
2024-03-07T08:15:32.125Z,7.10
2024-03-07T08:18:02.826Z,7.30
2024-03-07T08:20:33.240Z,7.20
2024-03-07T08:23:00.714Z,7.30
2024-03-07T08:25:30.203Z,7.20
2024-03-07T08:27:58.955Z,7.30
2024-03-07T08:30:29.933Z,7.30
2024-03-07T08:32:58.203Z,7.60
2024-03-07T08:35:27.077Z,7.90
2024-03-07T08:37:56.108Z,8.00
2024-03-07T08:40:32.254Z,8.30
2024-03-07T08:43:00.012Z,8.70
2024-03-07T08:45:27.732Z,8.70
2024-03-07T08:47:56.469Z,8.90
2024-03-07T08:50:24.603Z,9.00
2024-03-07T08:52:54.570Z,8.90
2024-03-07T08:55:23.968Z,8.90
2024-03-07T08:57:50.909Z,9.20
2024-03-07T09:00:31.225Z,9.50
2024-03-07T09:03:03.628Z,9.30
2024-03-07T09:05:32.840Z,9.40
2024-03-07T09:08:01.528Z,9.90
2024-03-07T09:10:31.175Z,9.90
2024-03-07T09:12:58.813Z,9.80
2024-03-07T09:15:25.978Z,9.90
2024-03-07T09:17:54.278Z,9.90
2024-03-07T09:20:23.488Z,9.90
2024-03-07T09:22:51.239Z,9.80
2024-03-07T09:25:20.609Z,9.80
2024-03-07T09:27:48.069Z,10.00
2024-03-07T09:30:20.201Z,10.00
2024-03-07T09:32:47.186Z,10.00
2024-03-07T09:35:14.968Z,10.20
2024-03-07T09:37:43.537Z,10.20
2024-03-07T09:40:15.184Z,10.40
2024-03-07T09:42:49.736Z,10.40
2024-03-07T09:45:19.598Z,10.30
2024-03-07T09:47:52.462Z,10.40
2024-03-07T09:50:22.726Z,10.30
2024-03-07T09:52:50.924Z,10.50
2024-03-07T09:55:23.025Z,10.20
2024-03-07T09:57:57.725Z,10.20
2024-03-07T10:00:30.316Z,10.40
2024-03-07T10:03:21.898Z,10.60
2024-03-07T10:05:53.888Z,10.50
2024-03-07T10:08:22.504Z,10.60
2024-03-07T10:10:51.774Z,10.60
2024-03-07T10:13:19.324Z,10.70
2024-03-07T10:15:48.419Z,11.00
2024-03-07T10:18:23.452Z,11.20
2024-03-07T10:20:50.889Z,11.30
2024-03-07T10:23:23.550Z,11.40
2024-03-07T10:25:51.498Z,11.30
2024-03-07T10:28:18.907Z,11.50
2024-03-07T10:30:46.595Z,11.50
2024-03-07T10:33:13.874Z,11.60
2024-03-07T10:35:40.720Z,11.60
2024-03-07T10:38:08.727Z,11.60
2024-03-07T10:40:42.430Z,11.70
2024-03-07T10:43:17.379Z,11.70
2024-03-07T10:45:48.058Z,11.70
2024-03-07T10:48:25.382Z,11.90
2024-03-07T10:51:07.102Z,11.80
2024-03-07T10:53:45.726Z,11.80
2024-03-07T10:56:19.713Z,11.70
2024-03-07T10:58:46.393Z,11.50
2024-03-07T11:01:15.299Z,11.50
2024-03-07T11:03:43.712Z,11.40
2024-03-07T11:06:12.699Z,11.40
2024-03-07T11:08:43.007Z,11.40
2024-03-07T11:11:09.778Z,11.30
2024-03-07T11:13:38.649Z,11.50
2024-03-07T11:16:10.961Z,11.40
2024-03-07T11:18:37.803Z,11.50
2024-03-07T11:21:06.757Z,11.60
2024-03-07T11:23:34.767Z,11.60
2024-03-07T11:26:10.002Z,11.70
2024-03-07T11:28:38.656Z,11.60
2024-03-07T11:31:26.370Z,11.70
2024-03-07T11:34:15.713Z,11.90
2024-03-07T11:36:56.603Z,11.90
2024-03-07T11:39:44.447Z,12.00
2024-03-07T11:42:20.673Z,12.30
2024-03-07T11:44:47.618Z,12.40
2024-03-07T11:47:14.781Z,12.40
2024-03-07T11:49:41.484Z,12.40
2024-03-07T11:52:14.183Z,12.40
2024-03-07T11:54:47.025Z,12.20
2024-03-07T11:57:16.160Z,12.50
2024-03-07T11:59:47.095Z,12.50
2024-03-07T12:02:18.866Z,12.50
2024-03-07T12:04:45.689Z,12.50
2024-03-07T12:07:12.889Z,12.20
2024-03-07T12:09:40.685Z,12.30
2024-03-07T12:12:08.040Z,12.50
2024-03-07T12:14:35.228Z,12.60
2024-03-07T12:17:05.100Z,12.50
2024-03-07T12:19:34.806Z,12.30
2024-03-07T12:22:20.724Z,12.30
2024-03-07T12:24:47.985Z,12.40
2024-03-07T12:27:16.965Z,12.40
2024-03-07T12:29:44.665Z,12.30
2024-03-07T12:32:16.778Z,12.60
2024-03-07T12:34:49.703Z,12.70
2024-03-07T12:37:17.536Z,12.80
2024-03-07T12:39:49.963Z,13.00
2024-03-07T12:42:20.925Z,13.20
2024-03-07T12:44:50.439Z,13.40
2024-03-07T12:47:18.360Z,13.30
2024-03-07T12:49:45.801Z,13.40
2024-03-07T12:52:16.335Z,13.40
2024-03-07T12:54:43.945Z,13.40
2024-03-07T12:57:11.792Z,13.20
2024-03-07T12:59:42.291Z,13.30
2024-03-07T13:02:10.056Z,13.00
2024-03-07T13:04:43.106Z,12.90
2024-03-07T13:07:10.994Z,12.60
2024-03-07T13:09:39.245Z,12.60
2024-03-07T13:12:10.410Z,12.50
2024-03-07T13:14:37.523Z,12.40
2024-03-07T13:17:08.266Z,12.40
2024-03-07T13:19:34.998Z,12.40
2024-03-07T13:22:02.819Z,12.40
2024-03-07T13:24:29.509Z,12.30
2024-03-07T13:26:56.282Z,12.40
2024-03-07T13:29:25.931Z,12.50
2024-03-07T13:31:53.883Z,12.20
2024-03-07T13:34:20.753Z,12.30
2024-03-07T13:36:47.598Z,12.40
2024-03-07T13:39:15.168Z,12.80
2024-03-07T13:41:51.914Z,12.80
2024-03-07T13:44:20.570Z,13.00
2024-03-07T13:46:47.270Z,12.90
2024-03-07T13:49:14.167Z,12.60
2024-03-07T13:52:00.909Z,12.70
2024-03-07T13:54:33.651Z,12.70
2024-03-07T13:57:06.419Z,12.70
2024-03-07T13:59:54.112Z,12.60
2024-03-07T14:03:07.979Z,12.60
2024-03-07T14:05:57.891Z,12.60
2024-03-07T14:09:09.952Z,12.50
2024-03-07T14:12:11.101Z,12.40
2024-03-07T14:15:15.210Z,12.40
2024-03-07T14:18:16.272Z,12.30
2024-03-07T14:21:21.139Z,12.30
2024-03-07T14:24:19.543Z,12.30
2024-03-07T14:27:19.848Z,12.20
2024-03-07T14:30:11.128Z,12.10
2024-03-07T14:32:39.660Z,12.40
2024-03-07T14:35:09.472Z,12.20
2024-03-07T14:37:36.418Z,12.10
2024-03-07T14:40:14.372Z,12.20
2024-03-07T14:42:48.106Z,12.40
2024-03-07T14:45:25.388Z,12.40
2024-03-07T14:47:55.560Z,12.40
2024-03-07T14:50:24.040Z,12.40
2024-03-07T14:52:51.168Z,12.20
2024-03-07T14:55:20.010Z,12.30
2024-03-07T14:57:47.058Z,12.40
2024-03-07T15:00:29.184Z,12.40
2024-03-07T15:03:02.021Z,12.40
2024-03-07T15:05:29.026Z,12.50
2024-03-07T15:07:56.421Z,12.60
2024-03-07T15:10:29.505Z,12.50
2024-03-07T15:12:56.262Z,12.50
2024-03-07T15:15:25.386Z,12.50
2024-03-07T15:17:52.545Z,12.50
2024-03-07T15:20:27.400Z,12.60
2024-03-07T15:23:02.242Z,12.60
2024-03-07T15:25:30.687Z,12.50
2024-03-07T15:27:59.923Z,12.50
2024-03-07T15:30:37.713Z,12.60
2024-03-07T15:33:05.644Z,12.40
2024-03-07T15:35:33.864Z,12.60
2024-03-07T15:38:00.778Z,12.80
2024-03-07T15:40:30.349Z,12.50
2024-03-07T15:42:57.751Z,12.50
2024-03-07T15:45:26.627Z,12.30
2024-03-07T15:47:54.918Z,12.40
2024-03-07T15:50:23.253Z,12.50
2024-03-07T15:52:55.218Z,12.70
2024-03-07T15:55:25.481Z,12.60
2024-03-07T15:57:54.667Z,12.60
2024-03-07T16:00:30.928Z,12.50
2024-03-07T16:03:11.944Z,12.70
2024-03-07T16:05:40.992Z,12.50
2024-03-07T16:08:10.361Z,12.60
2024-03-07T16:10:40.451Z,12.50
2024-03-07T16:13:09.491Z,12.60
2024-03-07T16:15:41.642Z,12.40
2024-03-07T16:18:11.903Z,12.10
2024-03-07T16:20:39.802Z,11.90
2024-03-07T16:23:06.839Z,11.70
2024-03-07T16:25:35.194Z,11.90
2024-03-07T16:28:02.053Z,11.80
2024-03-07T16:30:32.844Z,11.80
2024-03-07T16:33:01.170Z,11.90
2024-03-07T16:35:32.102Z,11.90
2024-03-07T16:38:00.051Z,11.90
2024-03-07T16:40:28.156Z,11.70
2024-03-07T16:42:59.588Z,11.80
2024-03-07T16:45:30.067Z,11.50
2024-03-07T16:47:58.720Z,11.50
2024-03-07T16:50:30.351Z,11.70
2024-03-07T16:52:59.533Z,11.60
2024-03-07T16:55:26.248Z,11.80
2024-03-07T16:58:09.014Z,11.50
2024-03-07T17:00:40.707Z,11.20
2024-03-07T17:03:08.550Z,11.40
2024-03-07T17:05:36.880Z,11.70
2024-03-07T17:08:07.898Z,11.40
2024-03-07T17:10:37.294Z,11.30
2024-03-07T17:13:14.654Z,11.30
2024-03-07T17:15:47.165Z,11.10
2024-03-07T17:18:14.931Z,11.00
2024-03-07T17:20:44.161Z,10.90
2024-03-07T17:23:13.295Z,10.90
2024-03-07T17:25:39.931Z,10.90
2024-03-07T17:28:06.630Z,10.90
2024-03-07T17:30:33.977Z,11.00
2024-03-07T17:33:01.716Z,11.10
2024-03-07T17:35:30.966Z,11.20
2024-03-07T17:37:58.581Z,11.20
2024-03-07T17:40:28.676Z,11.00
2024-03-07T17:42:56.626Z,11.00
2024-03-07T17:45:35.376Z,11.30
2024-03-07T17:48:04.076Z,11.20
2024-03-07T17:50:33.143Z,11.10
2024-03-07T17:53:10.214Z,11.00
2024-03-07T17:55:42.035Z,11.20
2024-03-07T17:58:09.727Z,11.20
2024-03-07T18:00:37.140Z,11.20
2024-03-07T18:03:06.231Z,11.20
2024-03-07T18:05:38.272Z,11.00
2024-03-07T18:08:21.541Z,10.70
2024-03-07T18:10:56.603Z,10.70
2024-03-07T18:13:23.698Z,10.50
2024-03-07T18:15:50.725Z,10.50
2024-03-07T18:18:17.959Z,10.50
2024-03-07T18:20:46.385Z,10.30
2024-03-07T18:23:14.193Z,10.40
2024-03-07T18:25:41.811Z,10.40
2024-03-07T18:28:08.605Z,10.30
2024-03-07T18:30:35.491Z,10.20
2024-03-07T18:33:06.881Z,10.20
2024-03-07T18:35:35.089Z,10.10
2024-03-07T18:38:02.667Z,10.10
2024-03-07T18:40:30.231Z,10.00
2024-03-07T18:42:57.910Z,10.30
2024-03-07T18:45:27.603Z,10.20
2024-03-07T18:47:55.018Z,10.20
2024-03-07T18:50:23.680Z,10.20
2024-03-07T18:52:51.659Z,10.40
2024-03-07T18:55:21.453Z,10.30
2024-03-07T18:57:50.106Z,10.30
2024-03-07T19:00:54.425Z,10.20
2024-03-07T19:03:22.396Z,10.20
2024-03-07T19:05:51.321Z,10.20
2024-03-07T19:08:21.624Z,10.20
2024-03-07T19:10:50.120Z,10.10
2024-03-07T19:13:18.396Z,10.10
2024-03-07T19:15:45.422Z,10.20
2024-03-07T19:18:15.317Z,10.20
2024-03-07T19:20:43.453Z,10.10
2024-03-07T19:23:12.123Z,10.10
2024-03-07T19:25:42.268Z,10.00
2024-03-07T19:28:16.639Z,10.20
2024-03-07T19:30:48.005Z,10.10
2024-03-07T19:33:22.054Z,10.10
2024-03-07T19:35:52.220Z,9.80
2024-03-07T19:38:19.839Z,9.90
2024-03-07T19:40:46.955Z,10.00
2024-03-07T19:43:15.499Z,10.00
2024-03-07T19:45:43.502Z,9.90
2024-03-07T19:48:13.360Z,10.10
2024-03-07T19:50:42.864Z,10.10
2024-03-07T19:53:15.246Z,10.20
2024-03-07T19:55:43.277Z,9.90
2024-03-07T19:58:10.078Z,9.90
2024-03-07T20:00:36.844Z,10.00
2024-03-07T20:03:04.356Z,10.20
2024-03-07T20:05:33.133Z,10.30
2024-03-07T20:07:59.989Z,10.10
2024-03-07T20:10:30.098Z,9.90
2024-03-07T20:12:57.564Z,9.90
2024-03-07T20:15:25.248Z,9.80
2024-03-07T20:17:52.308Z,9.70
2024-03-07T20:20:24.802Z,9.70
2024-03-07T20:22:55.249Z,9.70
2024-03-07T20:25:22.673Z,9.60
2024-03-07T20:27:57.081Z,9.80
2024-03-07T20:30:24.146Z,9.70
2024-03-07T20:32:51.137Z,9.90
2024-03-07T20:35:21.332Z,10.00
2024-03-07T20:37:49.648Z,9.90
2024-03-07T20:40:26.561Z,9.80
2024-03-07T20:42:53.519Z,9.80
2024-03-07T20:45:22.672Z,9.90
2024-03-07T20:47:50.566Z,9.70
2024-03-07T20:50:21.004Z,9.80
2024-03-07T20:52:51.189Z,9.70
2024-03-07T20:55:19.514Z,9.70
2024-03-07T20:57:47.730Z,9.40
2024-03-07T21:00:18.889Z,9.30
2024-03-07T21:02:48.201Z,9.40
2024-03-07T21:05:16.510Z,9.40
2024-03-07T21:07:45.563Z,9.40
2024-03-07T21:10:14.115Z,9.50
2024-03-07T21:12:41.020Z,9.50
2024-03-07T21:15:09.035Z,9.40
2024-03-07T21:17:36.489Z,9.40
2024-03-07T21:20:14.423Z,9.20
2024-03-07T21:22:42.626Z,9.10
2024-03-07T21:25:13.858Z,9.00
2024-03-07T21:27:42.151Z,8.90
2024-03-07T21:30:10.776Z,8.70
2024-03-07T21:32:38.255Z,8.60
2024-03-07T21:35:08.577Z,8.60
2024-03-07T21:37:35.685Z,8.60
2024-03-07T21:40:03.741Z,8.50
2024-03-07T21:42:31.341Z,8.50
2024-03-07T21:44:58.013Z,8.70
2024-03-07T21:47:24.921Z,8.70
2024-03-07T21:49:51.949Z,8.60
2024-03-07T21:52:18.691Z,8.70
2024-03-07T21:54:47.268Z,8.70
2024-03-07T21:57:14.841Z,8.50
2024-03-07T21:59:42.017Z,8.40
2024-03-07T22:02:10.375Z,8.20
2024-03-07T22:07:15.912Z,8.10
2024-03-07T22:09:43.422Z,7.90
2024-03-07T22:12:10.164Z,7.90
2024-03-07T22:14:38.848Z,7.90
2024-03-07T22:17:06.087Z,7.90
2024-03-07T22:19:35.793Z,7.90
2024-03-07T22:22:05.011Z,7.80
2024-03-07T22:24:31.764Z,7.80
2024-03-07T22:26:58.577Z,7.90
2024-03-07T22:29:25.398Z,7.90
2024-03-07T22:31:52.129Z,7.90
2024-03-07T22:34:18.827Z,7.80
2024-03-07T22:36:46.157Z,7.80
2024-03-07T22:39:13.486Z,7.70
2024-03-07T22:41:43.543Z,7.50
2024-03-07T22:44:11.576Z,7.50
2024-03-07T22:46:38.646Z,7.40
2024-03-07T22:49:05.879Z,7.30
2024-03-07T22:51:32.696Z,7.30
2024-03-07T22:53:59.534Z,7.70
2024-03-07T22:56:27.674Z,7.50
2024-03-07T22:58:56.235Z,7.30
2024-03-07T23:01:32.736Z,7.30
2024-03-07T23:04:02.608Z,7.30
2024-03-07T23:06:32.473Z,7.20
2024-03-07T23:08:59.812Z,7.20
2024-03-07T23:11:26.682Z,7.30
2024-03-07T23:13:53.441Z,7.20
2024-03-07T23:16:20.094Z,7.10
2024-03-07T23:18:47.900Z,7.20
2024-03-07T23:21:14.638Z,7.30
2024-03-07T23:23:42.681Z,7.20
2024-03-07T23:26:09.859Z,7.20
2024-03-07T23:28:37.028Z,7.20
2024-03-07T23:31:05.038Z,7.10
2024-03-07T23:33:31.819Z,7.20
2024-03-07T23:35:58.622Z,7.10
2024-03-07T23:38:25.456Z,7.10
2024-03-07T23:40:52.206Z,7.10
2024-03-07T23:43:18.941Z,6.90
2024-03-07T23:45:46.915Z,6.90
2024-03-07T23:48:13.608Z,6.90
2024-03-07T23:50:40.389Z,6.80
2024-03-07T23:53:07.806Z,6.70
2024-03-07T23:55:35.468Z,6.60
2024-03-07T23:58:02.516Z,6.80
